Cosmopolis, Washington
Current Conditions -  °F | °C
As of 11:53 PM on Thursday 23 Oct 2014 (Local Time) from KHQM Reporting Station
Overcast Overcast  
Wind Chill: 50°   Ceiling: 5500
Heat Index: 50°   Visibility: 8mi
Dew Point: 49°   Wind: 7mph
Humidity: 96%   Direction: 60°ENE
Pressure: 29.98"   Gusts: NA
Location:  46.96°N, 123.77°W
Report Text: KHQM 240653Z AUTO 06006KT 8SM FEW035 OVC055 10/09 A2998 RMK AO2 RAE33 SLP156 P0002 T01000094
Loading
Personal Weather Stations






























Interactive Weather Map
Tropical Storm Tracking
New forecast layout! Learn more

10-Day Weather Forecast

Advertisements
Track Severe Weather on mobile